sensor_id;sensor_type;location;lat;lon;timestamp;P1;durP1;ratioP1;P2;durP2;ratioP2
23362;SDS011;11853;48.080;11.960;2023-04-03T00:01:06;7.40;;;6.65;;
23362;SDS011;11853;48.080;11.960;2023-04-03T00:03:32;7.00;;;6.40;;
23362;SDS011;11853;48.080;11.960;2023-04-03T00:05:58;6.90;;;6.30;;
23362;SDS011;11853;48.080;11.960;2023-04-03T00:08:24;6.32;;;5.82;;
23362;SDS011;11853;48.080;11.960;2023-04-03T00:10:50;7.95;;;6.72;;
23362;SDS011;11853;48.080;11.960;2023-04-03T00:13:15;8.15;;;6.70;;
23362;SDS011;11853;48.080;11.960;2023-04-03T00:15:41;6.50;;;6.00;;
23362;SDS011;11853;48.080;11.960;2023-04-03T00:18:07;6.22;;;5.63;;
23362;SDS011;11853;48.080;11.960;2023-04-03T00:20:33;6.18;;;5.57;;
23362;SDS011;11853;48.080;11.960;2023-04-03T00:22:59;6.97;;;6.38;;
23362;SDS011;11853;48.080;11.960;2023-04-03T00:25:25;6.10;;;5.60;;
23362;SDS011;11853;48.080;11.960;2023-04-03T00:27:50;6.47;;;5.88;;
23362;SDS011;11853;48.080;11.960;2023-04-03T00:30:17;6.43;;;5.85;;
23362;SDS011;11853;48.080;11.960;2023-04-03T00:32:45;6.72;;;6.10;;
23362;SDS011;11853;48.080;11.960;2023-04-03T00:35:12;6.20;;;5.60;;
23362;SDS011;11853;48.080;11.960;2023-04-03T00:37:40;6.20;;;5.70;;
23362;SDS011;11853;48.080;11.960;2023-04-03T00:40:07;6.70;;;6.10;;
23362;SDS011;11853;48.080;11.960;2023-04-03T00:42:33;6.28;;;5.68;;
23362;SDS011;11853;48.080;11.960;2023-04-03T00:47:25;8.10;;;6.20;;
23362;SDS011;11853;48.080;11.960;2023-04-03T00:49:52;6.20;;;5.70;;
23362;SDS011;11853;48.080;11.960;2023-04-03T00:52:19;6.20;;;5.70;;
23362;SDS011;11853;48.080;11.960;2023-04-03T00:54:49;5.47;;;4.97;;
23362;SDS011;11853;48.080;11.960;2023-04-03T00:57:17;6.40;;;5.88;;
23362;SDS011;11853;48.080;11.960;2023-04-03T00:59:46;6.75;;;5.90;;
23362;SDS011;11853;48.080;11.960;2023-04-03T01:02:16;6.90;;;6.22;;
23362;SDS011;11853;48.080;11.960;2023-04-03T01:04:43;6.85;;;6.25;;
23362;SDS011;11853;48.080;11.960;2023-04-03T01:07:13;6.47;;;5.88;;
23362;SDS011;11853;48.080;11.960;2023-04-03T01:09:43;6.93;;;6.32;;
23362;SDS011;11853;48.080;11.960;2023-04-03T01:12:21;6.97;;;6.28;;
23362;SDS011;11853;48.080;11.960;2023-04-03T01:14:59;6.45;;;5.88;;
23362;SDS011;11853;48.080;11.960;2023-04-03T01:17:34;5.88;;;5.38;;
23362;SDS011;11853;48.080;11.960;2023-04-03T01:25:37;6.65;;;6.05;;
23362;SDS011;11853;48.080;11.960;2023-04-03T01:28:11;7.43;;;6.75;;
23362;SDS011;11853;48.080;11.960;2023-04-03T01:33:37;6.95;;;6.22;;
23362;SDS011;11853;48.080;11.960;2023-04-03T01:36:03;6.75;;;6.15;;
23362;SDS011;11853;48.080;11.960;2023-04-03T01:38:30;7.15;;;6.45;;
23362;SDS011;11853;48.080;11.960;2023-04-03T01:40:55;7.22;;;6.53;;
23362;SDS011;11853;48.080;11.960;2023-04-03T01:43:21;7.10;;;6.40;;
23362;SDS011;11853;48.080;11.960;2023-04-03T01:45:47;6.85;;;6.25;;
23362;SDS011;11853;48.080;11.960;2023-04-03T01:48:14;7.00;;;6.40;;
23362;SDS011;11853;48.080;11.960;2023-04-03T01:50:40;6.35;;;5.78;;
23362;SDS011;11853;48.080;11.960;2023-04-03T01:53:06;6.72;;;6.10;;
23362;SDS011;11853;48.080;11.960;2023-04-03T01:55:32;6.60;;;6.05;;
23362;SDS011;11853;48.080;11.960;2023-04-03T01:57:57;6.22;;;5.63;;
23362;SDS011;11853;48.080;11.960;2023-04-03T02:00:23;6.75;;;5.78;;
23362;SDS011;11853;48.080;11.960;2023-04-03T02:02:49;6.50;;;5.90;;
23362;SDS011;11853;48.080;11.960;2023-04-03T02:05:15;6.50;;;5.90;;
23362;SDS011;11853;48.080;11.960;2023-04-03T02:07:40;5.65;;;5.15;;
23362;SDS011;11853;48.080;11.960;2023-04-03T02:10:06;6.03;;;5.43;;
23362;SDS011;11853;48.080;11.960;2023-04-03T02:12:32;5.65;;;5.15;;
23362;SDS011;11853;48.080;11.960;2023-04-03T02:14:58;6.15;;;5.55;;
23362;SDS011;11853;48.080;11.960;2023-04-03T02:17:23;5.47;;;5.07;;
23362;SDS011;11853;48.080;11.960;2023-04-03T02:19:49;6.25;;;5.65;;
23362;SDS011;11853;48.080;11.960;2023-04-03T02:22:15;6.20;;;5.70;;
23362;SDS011;11853;48.080;11.960;2023-04-03T02:24:41;5.53;;;5.10;;
23362;SDS011;11853;48.080;11.960;2023-04-03T02:27:06;6.25;;;5.15;;
23362;SDS011;11853;48.080;11.960;2023-04-03T02:29:35;6.10;;;5.60;;
23362;SDS011;11853;48.080;11.960;2023-04-03T02:32:01;5.55;;;5.05;;
23362;SDS011;11853;48.080;11.960;2023-04-03T02:34:26;5.65;;;5.03;;
23362;SDS011;11853;48.080;11.960;2023-04-03T02:36:52;5.75;;;5.25;;
23362;SDS011;11853;48.080;11.960;2023-04-03T02:39:18;5.50;;;4.90;;
23362;SDS011;11853;48.080;11.960;2023-04-03T02:41:43;6.07;;;5.43;;
23362;SDS011;11853;48.080;11.960;2023-04-03T02:44:10;6.15;;;5.50;;
23362;SDS011;11853;48.080;11.960;2023-04-03T02:46:36;5.60;;;5.10;;
23362;SDS011;11853;48.080;11.960;2023-04-03T02:49:02;5.80;;;5.30;;
23362;SDS011;11853;48.080;11.960;2023-04-03T02:51:28;5.53;;;5.03;;
23362;SDS011;11853;48.080;11.960;2023-04-03T02:53:54;6.05;;;5.45;;
23362;SDS011;11853;48.080;11.960;2023-04-03T02:56:20;6.05;;;5.43;;
23362;SDS011;11853;48.080;11.960;2023-04-03T02:58:46;5.65;;;5.05;;
23362;SDS011;11853;48.080;11.960;2023-04-03T03:01:12;5.38;;;4.88;;
23362;SDS011;11853;48.080;11.960;2023-04-03T03:03:39;5.93;;;5.32;;
23362;SDS011;11853;48.080;11.960;2023-04-03T03:06:08;6.18;;;5.57;;
23362;SDS011;11853;48.080;11.960;2023-04-03T03:08:36;6.18;;;5.57;;
23362;SDS011;11853;48.080;11.960;2023-04-03T03:11:02;6.22;;;5.63;;
23362;SDS011;11853;48.080;11.960;2023-04-03T03:13:29;5.82;;;5.22;;
23362;SDS011;11853;48.080;11.960;2023-04-03T03:15:55;6.35;;;5.82;;
23362;SDS011;11853;48.080;11.960;2023-04-03T03:18:21;5.57;;;5.15;;
23362;SDS011;11853;48.080;11.960;2023-04-03T03:20:50;6.05;;;5.45;;
23362;SDS011;11853;48.080;11.960;2023-04-03T03:23:21;6.40;;;5.78;;
23362;SDS011;11853;48.080;11.960;2023-04-03T03:25:48;6.97;;;6.28;;
23362;SDS011;11853;48.080;11.960;2023-04-03T03:28:13;6.25;;;5.65;;
23362;SDS011;11853;48.080;11.960;2023-04-03T03:30:39;5.93;;;5.35;;
23362;SDS011;11853;48.080;11.960;2023-04-03T03:33:05;6.53;;;5.93;;
23362;SDS011;11853;48.080;11.960;2023-04-03T03:35:31;6.35;;;5.75;;
23362;SDS011;11853;48.080;11.960;2023-04-03T03:37:57;5.82;;;5.32;;
23362;SDS011;11853;48.080;11.960;2023-04-03T03:40:23;5.70;;;5.20;;
23362;SDS011;11853;48.080;11.960;2023-04-03T03:42:48;7.07;;;6.15;;
23362;SDS011;11853;48.080;11.960;2023-04-03T03:45:14;6.22;;;5.63;;
23362;SDS011;11853;48.080;11.960;2023-04-03T03:47:40;6.07;;;5.55;;
23362;SDS011;11853;48.080;11.960;2023-04-03T03:50:06;6.68;;;5.97;;
23362;SDS011;11853;48.080;11.960;2023-04-03T03:52:32;7.15;;;6.45;;
23362;SDS011;11853;48.080;11.960;2023-04-03T03:58:03;6.00;;;5.15;;
23362;SDS011;11853;48.080;11.960;2023-04-03T04:00:29;6.75;;;6.05;;
23362;SDS011;11853;48.080;11.960;2023-04-03T04:02:55;5.78;;;5.25;;
23362;SDS011;11853;48.080;11.960;2023-04-03T04:05:21;6.40;;;5.40;;
23362;SDS011;11853;48.080;11.960;2023-04-03T04:07:46;5.88;;;5.30;;
23362;SDS011;11853;48.080;11.960;2023-04-03T04:10:12;6.22;;;5.63;;
23362;SDS011;11853;48.080;11.960;2023-04-03T04:12:38;6.90;;;5.50;;
23362;SDS011;11853;48.080;11.960;2023-04-03T04:15:04;5.80;;;5.30;;
23362;SDS011;11853;48.080;11.960;2023-04-03T04:17:30;6.05;;;5.45;;
23362;SDS011;11853;48.080;11.960;2023-04-03T04:19:56;5.68;;;5.18;;
23362;SDS011;11853;48.080;11.960;2023-04-03T04:22:21;5.95;;;5.30;;
23362;SDS011;11853;48.080;11.960;2023-04-03T04:24:47;6.00;;;5.40;;
23362;SDS011;11853;48.080;11.960;2023-04-03T04:27:12;5.88;;;5.38;;
23362;SDS011;11853;48.080;11.960;2023-04-03T04:29:38;6.28;;;5.68;;
23362;SDS011;11853;48.080;11.960;2023-04-03T04:32:04;6.25;;;5.63;;
23362;SDS011;11853;48.080;11.960;2023-04-03T04:34:29;5.85;;;5.35;;
23362;SDS011;11853;48.080;11.960;2023-04-03T04:36:55;6.47;;;5.47;;
23362;SDS011;11853;48.080;11.960;2023-04-03T04:39:21;6.90;;;6.30;;
23362;SDS011;11853;48.080;11.960;2023-04-03T04:41:46;6.18;;;5.57;;
23362;SDS011;11853;48.080;11.960;2023-04-03T04:44:12;6.97;;;6.10;;
23362;SDS011;11853;48.080;11.960;2023-04-03T04:46:37;6.50;;;5.90;;
23362;SDS011;11853;48.080;11.960;2023-04-03T04:49:03;6.07;;;5.45;;
23362;SDS011;11853;48.080;11.960;2023-04-03T04:51:28;7.68;;;5.22;;
23362;SDS011;11853;48.080;11.960;2023-04-03T04:53:54;5.53;;;5.03;;
23362;SDS011;11853;48.080;11.960;2023-04-03T04:56:20;5.95;;;5.35;;
23362;SDS011;11853;48.080;11.960;2023-04-03T04:58:46;5.90;;;5.40;;
23362;SDS011;11853;48.080;11.960;2023-04-03T05:01:11;5.82;;;5.32;;
23362;SDS011;11853;48.080;11.960;2023-04-03T05:03:37;11.18;;;7.75;;
23362;SDS011;11853;48.080;11.960;2023-04-03T05:06:03;6.53;;;5.88;;
23362;SDS011;11853;48.080;11.960;2023-04-03T05:08:28;5.68;;;5.18;;
23362;SDS011;11853;48.080;11.960;2023-04-03T05:10:54;6.00;;;5.10;;
23362;SDS011;11853;48.080;11.960;2023-04-03T05:13:20;6.00;;;5.40;;
23362;SDS011;11853;48.080;11.960;2023-04-03T05:15:46;6.40;;;5.72;;
23362;SDS011;11853;48.080;11.960;2023-04-03T05:18:12;6.30;;;5.32;;
23362;SDS011;11853;48.080;11.960;2023-04-03T05:20:38;5.72;;;5.22;;
23362;SDS011;11853;48.080;11.960;2023-04-03T05:23:03;7.60;;;5.20;;
23362;SDS011;11853;48.080;11.960;2023-04-03T05:25:29;6.20;;;5.60;;
23362;SDS011;11853;48.080;11.960;2023-04-03T05:27:55;7.03;;;5.10;;
23362;SDS011;11853;48.080;11.960;2023-04-03T05:30:21;5.72;;;5.22;;
23362;SDS011;11853;48.080;11.960;2023-04-03T05:32:47;5.45;;;4.93;;
23362;SDS011;11853;48.080;11.960;2023-04-03T05:35:12;6.55;;;5.32;;
23362;SDS011;11853;48.080;11.960;2023-04-03T05:37:38;5.97;;;5.43;;
23362;SDS011;11853;48.080;11.960;2023-04-03T05:40:04;6.68;;;5.45;;
23362;SDS011;11853;48.080;11.960;2023-04-03T05:42:31;5.82;;;4.93;;
23362;SDS011;11853;48.080;11.960;2023-04-03T05:44:57;7.13;;;5.05;;
23362;SDS011;11853;48.080;11.960;2023-04-03T05:47:22;6.25;;;4.85;;
23362;SDS011;11853;48.080;11.960;2023-04-03T05:49:48;6.60;;;5.57;;
23362;SDS011;11853;48.080;11.960;2023-04-03T05:54:53;7.53;;;5.72;;
23362;SDS011;11853;48.080;11.960;2023-04-03T05:57:18;7.88;;;5.45;;
23362;SDS011;11853;48.080;11.960;2023-04-03T05:59:44;5.30;;;4.80;;
23362;SDS011;11853;48.080;11.960;2023-04-03T06:02:12;4.82;;;4.32;;
23362;SDS011;11853;48.080;11.960;2023-04-03T06:04:40;5.40;;;4.13;;
23362;SDS011;11853;48.080;11.960;2023-04-03T06:07:05;4.82;;;4.43;;
23362;SDS011;11853;48.080;11.960;2023-04-03T06:09:32;4.68;;;4.28;;
23362;SDS011;11853;48.080;11.960;2023-04-03T06:11:58;4.80;;;4.40;;
23362;SDS011;11853;48.080;11.960;2023-04-03T06:14:25;4.78;;;4.38;;
23362;SDS011;11853;48.080;11.960;2023-04-03T06:16:51;5.03;;;4.55;;
23362;SDS011;11853;48.080;11.960;2023-04-03T06:19:17;4.95;;;4.47;;
23362;SDS011;11853;48.080;11.960;2023-04-03T06:21:43;4.82;;;4.32;;
23362;SDS011;11853;48.080;11.960;2023-04-03T06:24:09;5.15;;;4.65;;
23362;SDS011;11853;48.080;11.960;2023-04-03T06:26:37;5.95;;;4.80;;
23362;SDS011;11853;48.080;11.960;2023-04-03T06:29:03;4.32;;;3.92;;
23362;SDS011;11853;48.080;11.960;2023-04-03T06:31:29;5.30;;;4.55;;
23362;SDS011;11853;48.080;11.960;2023-04-03T06:33:54;4.75;;;4.28;;
23362;SDS011;11853;48.080;11.960;2023-04-03T06:36:21;5.90;;;4.35;;
23362;SDS011;11853;48.080;11.960;2023-04-03T06:38:47;4.82;;;4.40;;
23362;SDS011;11853;48.080;11.960;2023-04-03T06:41:13;6.75;;;4.38;;
23362;SDS011;11853;48.080;11.960;2023-04-03T06:43:39;4.55;;;4.07;;
23362;SDS011;11853;48.080;11.960;2023-04-03T06:46:05;4.47;;;4.07;;
23362;SDS011;11853;48.080;11.960;2023-04-03T06:48:31;4.28;;;3.72;;
23362;SDS011;11853;48.080;11.960;2023-04-03T06:50:57;5.25;;;4.10;;
23362;SDS011;11853;48.080;11.960;2023-04-03T06:53:22;4.50;;;4.10;;
23362;SDS011;11853;48.080;11.960;2023-04-03T06:55:48;5.82;;;3.72;;
23362;SDS011;11853;48.080;11.960;2023-04-03T06:58:13;4.90;;;4.30;;
23362;SDS011;11853;48.080;11.960;2023-04-03T07:00:40;6.35;;;4.43;;
23362;SDS011;11853;48.080;11.960;2023-04-03T07:03:06;4.47;;;4.07;;
23362;SDS011;11853;48.080;11.960;2023-04-03T07:05:32;5.15;;;3.97;;
23362;SDS011;11853;48.080;11.960;2023-04-03T07:07:57;4.25;;;3.85;;
23362;SDS011;11853;48.080;11.960;2023-04-03T07:10:23;4.53;;;3.63;;
23362;SDS011;11853;48.080;11.960;2023-04-03T07:12:48;4.38;;;3.97;;
23362;SDS011;11853;48.080;11.960;2023-04-03T07:15:14;4.28;;;3.88;;
23362;SDS011;11853;48.080;11.960;2023-04-03T07:17:40;4.40;;;4.00;;
23362;SDS011;11853;48.080;11.960;2023-04-03T07:20:06;4.57;;;4.18;;
23362;SDS011;11853;48.080;11.960;2023-04-03T07:22:33;4.07;;;3.67;;
23362;SDS011;11853;48.080;11.960;2023-04-03T07:25:09;6.78;;;4.30;;
23362;SDS011;11853;48.080;11.960;2023-04-03T07:27:35;4.57;;;4.13;;
23362;SDS011;11853;48.080;11.960;2023-04-03T07:30:01;5.10;;;3.80;;
23362;SDS011;11853;48.080;11.960;2023-04-03T07:32:28;6.00;;;4.63;;
23362;SDS011;11853;48.080;11.960;2023-04-03T07:34:54;6.70;;;4.35;;
23362;SDS011;11853;48.080;11.960;2023-04-03T07:37:19;4.40;;;4.00;;
23362;SDS011;11853;48.080;11.960;2023-04-03T07:39:45;4.38;;;3.97;;
23362;SDS011;11853;48.080;11.960;2023-04-03T07:42:11;4.97;;;4.10;;
23362;SDS011;11853;48.080;11.960;2023-04-03T07:44:37;5.82;;;4.00;;
23362;SDS011;11853;48.080;11.960;2023-04-03T07:47:03;4.60;;;4.20;;
23362;SDS011;11853;48.080;11.960;2023-04-03T07:49:28;4.88;;;3.97;;
23362;SDS011;11853;48.080;11.960;2023-04-03T07:51:55;4.68;;;4.28;;
23362;SDS011;11853;48.080;11.960;2023-04-03T07:54:20;5.13;;;4.22;;
23362;SDS011;11853;48.080;11.960;2023-04-03T07:56:46;4.32;;;4.00;;
23362;SDS011;11853;48.080;11.960;2023-04-03T07:59:12;4.82;;;4.40;;
23362;SDS011;11853;48.080;11.960;2023-04-03T08:01:43;4.65;;;3.60;;
23362;SDS011;11853;48.080;11.960;2023-04-03T08:04:08;5.83;;;4.17;;
23362;SDS011;11853;48.080;11.960;2023-04-03T08:06:35;5.00;;;4.40;;
23362;SDS011;11853;48.080;11.960;2023-04-03T08:09:02;4.78;;;3.83;;
23362;SDS011;11853;48.080;11.960;2023-04-03T08:11:29;4.10;;;3.78;;
23362;SDS011;11853;48.080;11.960;2023-04-03T08:13:56;6.88;;;3.95;;
23362;SDS011;11853;48.080;11.960;2023-04-03T08:16:22;4.85;;;4.40;;
23362;SDS011;11853;48.080;11.960;2023-04-03T08:18:51;6.22;;;4.13;;
23362;SDS011;11853;48.080;11.960;2023-04-03T08:21:17;4.20;;;3.80;;
23362;SDS011;11853;48.080;11.960;2023-04-03T08:23:43;5.72;;;4.32;;
23362;SDS011;11853;48.080;11.960;2023-04-03T08:26:09;4.60;;;3.95;;
23362;SDS011;11853;48.080;11.960;2023-04-03T08:28:36;4.85;;;3.90;;
23362;SDS011;11853;48.080;11.960;2023-04-03T08:31:06;4.57;;;4.18;;
23362;SDS011;11853;48.080;11.960;2023-04-03T08:33:36;5.47;;;3.95;;
23362;SDS011;11853;48.080;11.960;2023-04-03T08:36:03;4.35;;;4.00;;
23362;SDS011;11853;48.080;11.960;2023-04-03T08:38:30;4.88;;;4.20;;
23362;SDS011;11853;48.080;11.960;2023-04-03T08:41:00;7.15;;;4.85;;
23362;SDS011;11853;48.080;11.960;2023-04-03T08:46:24;4.25;;;3.85;;
23362;SDS011;11853;48.080;11.960;2023-04-03T08:48:57;7.05;;;5.00;;
23362;SDS011;11853;48.080;11.960;2023-04-03T08:51:24;5.13;;;4.63;;
23362;SDS011;11853;48.080;11.960;2023-04-03T08:54:06;5.03;;;4.53;;
23362;SDS011;11853;48.080;11.960;2023-04-03T08:56:46;4.63;;;4.20;;
23362;SDS011;11853;48.080;11.960;2023-04-03T08:59:12;4.88;;;4.47;;
23362;SDS011;11853;48.080;11.960;2023-04-03T09:01:46;4.65;;;4.18;;
23362;SDS011;11853;48.080;11.960;2023-04-03T09:04:13;4.95;;;4.45;;
23362;SDS011;11853;48.080;11.960;2023-04-03T09:06:42;4.85;;;4.40;;
23362;SDS011;11853;48.080;11.960;2023-04-03T09:09:28;5.93;;;4.30;;
23362;SDS011;11853;48.080;11.960;2023-04-03T09:12:23;5.78;;;4.53;;
23362;SDS011;11853;48.080;11.960;2023-04-03T09:15:33;6.03;;;5.28;;
23362;SDS011;11853;48.080;11.960;2023-04-03T09:20:52;5.40;;;4.53;;
23362;SDS011;11853;48.080;11.960;2023-04-03T09:26:38;9.95;;;7.10;;
23362;SDS011;11853;48.080;11.960;2023-04-03T09:29:00;7.43;;;6.60;;
23362;SDS011;11853;48.080;11.960;2023-04-03T09:31:35;5.87;;;5.30;;
23362;SDS011;11853;48.080;11.960;2023-04-03T09:34:05;7.15;;;4.97;;
23362;SDS011;11853;48.080;11.960;2023-04-03T09:36:48;6.57;;;4.93;;
23362;SDS011;11853;48.080;11.960;2023-04-03T09:42:02;6.78;;;5.50;;
23362;SDS011;11853;48.080;11.960;2023-04-03T09:44:33;7.93;;;5.03;;
23362;SDS011;11853;48.080;11.960;2023-04-03T09:49:45;4.35;;;3.60;;
23362;SDS011;11853;48.080;11.960;2023-04-03T09:52:22;4.05;;;3.70;;
23362;SDS011;11853;48.080;11.960;2023-04-03T09:54:49;4.20;;;3.80;;
23362;SDS011;11853;48.080;11.960;2023-04-03T09:57:15;3.80;;;3.50;;
23362;SDS011;11853;48.080;11.960;2023-04-03T09:59:44;6.00;;;5.40;;
23362;SDS011;11853;48.080;11.960;2023-04-03T10:04:52;6.32;;;3.72;;
23362;SDS011;11853;48.080;11.960;2023-04-03T10:07:28;3.85;;;3.25;;
23362;SDS011;11853;48.080;11.960;2023-04-03T10:09:57;3.72;;;3.25;;
23362;SDS011;11853;48.080;11.960;2023-04-03T10:12:25;4.00;;;3.70;;
23362;SDS011;11853;48.080;11.960;2023-04-03T10:15:00;3.92;;;3.60;;
23362;SDS011;11853;48.080;11.960;2023-04-03T10:31:21;5.22;;;4.72;;
23362;SDS011;11853;48.080;11.960;2023-04-03T10:44:58;6.35;;;4.97;;
23362;SDS011;11853;48.080;11.960;2023-04-03T10:47:41;6.90;;;4.82;;
23362;SDS011;11853;48.080;11.960;2023-04-03T11:01:35;5.95;;;5.30;;
23362;SDS011;11853;48.080;11.960;2023-04-03T11:04:05;5.85;;;5.05;;
23362;SDS011;11853;48.080;11.960;2023-04-03T11:06:35;5.90;;;4.80;;
23362;SDS011;11853;48.080;11.960;2023-04-03T11:09:25;4.57;;;4.22;;
23362;SDS011;11853;48.080;11.960;2023-04-03T11:11:55;6.03;;;4.32;;
23362;SDS011;11853;48.080;11.960;2023-04-03T11:14:28;4.88;;;4.38;;
23362;SDS011;11853;48.080;11.960;2023-04-03T11:17:18;4.70;;;4.30;;
23362;SDS011;11853;48.080;11.960;2023-04-03T11:22:30;5.75;;;4.28;;
23362;SDS011;11853;48.080;11.960;2023-04-03T11:27:42;5.47;;;4.00;;
23362;SDS011;11853;48.080;11.960;2023-04-03T11:30:18;4.90;;;3.78;;
23362;SDS011;11853;48.080;11.960;2023-04-03T11:32:51;4.15;;;3.75;;
23362;SDS011;11853;48.080;11.960;2023-04-03T11:35:27;3.95;;;3.63;;
23362;SDS011;11853;48.080;11.960;2023-04-03T11:37:53;4.85;;;4.25;;
23362;SDS011;11853;48.080;11.960;2023-04-03T11:40:24;4.00;;;3.50;;
23362;SDS011;11853;48.080;11.960;2023-04-03T11:42:54;5.78;;;3.90;;
23362;SDS011;11853;48.080;11.960;2023-04-03T11:50:53;5.53;;;5.03;;
23362;SDS011;11853;48.080;11.960;2023-04-03T12:01:46;5.05;;;4.22;;
23362;SDS011;11853;48.080;11.960;2023-04-03T12:04:14;6.82;;;4.20;;
23362;SDS011;11853;48.080;11.960;2023-04-03T12:06:49;6.10;;;3.85;;
23362;SDS011;11853;48.080;11.960;2023-04-03T12:09:34;4.53;;;4.00;;
23362;SDS011;11853;48.080;11.960;2023-04-03T12:17:49;4.03;;;3.42;;
23362;SDS011;11853;48.080;11.960;2023-04-03T12:23:23;4.60;;;2.72;;
23362;SDS011;11853;48.080;11.960;2023-04-03T12:25:51;3.88;;;3.00;;
23362;SDS011;11853;48.080;11.960;2023-04-03T12:28:17;6.32;;;5.05;;
23362;SDS011;11853;48.080;11.960;2023-04-03T12:30:42;7.22;;;5.35;;
23362;SDS011;11853;48.080;11.960;2023-04-03T12:38:50;3.72;;;3.42;;
23362;SDS011;11853;48.080;11.960;2023-04-03T12:41:42;3.60;;;3.30;;
23362;SDS011;11853;48.080;11.960;2023-04-03T12:50:24;3.20;;;2.90;;
23362;SDS011;11853;48.080;11.960;2023-04-03T12:52:54;5.18;;;2.58;;
23362;SDS011;11853;48.080;11.960;2023-04-03T12:55:26;3.58;;;2.55;;
23362;SDS011;11853;48.080;11.960;2023-04-03T12:57:52;2.92;;;2.55;;
23362;SDS011;11853;48.080;11.960;2023-04-03T13:00:18;4.10;;;2.50;;
23362;SDS011;11853;48.080;11.960;2023-04-03T13:02:55;2.88;;;2.50;;
23362;SDS011;11853;48.080;11.960;2023-04-03T13:05:21;4.30;;;3.90;;
23362;SDS011;11853;48.080;11.960;2023-04-03T13:07:49;3.10;;;2.65;;
23362;SDS011;11853;48.080;11.960;2023-04-03T13:10:18;2.90;;;2.60;;
23362;SDS011;11853;48.080;11.960;2023-04-03T13:12:48;8.07;;;5.05;;
23362;SDS011;11853;48.080;11.960;2023-04-03T13:15:23;9.65;;;6.22;;
23362;SDS011;11853;48.080;11.960;2023-04-03T13:17:53;4.38;;;3.10;;
23362;SDS011;11853;48.080;11.960;2023-04-03T13:20:21;3.38;;;2.72;;
23362;SDS011;11853;48.080;11.960;2023-04-03T13:23:03;2.90;;;2.70;;
23362;SDS011;11853;48.080;11.960;2023-04-03T13:25:31;6.30;;;4.28;;
23362;SDS011;11853;48.080;11.960;2023-04-03T13:27:59;4.40;;;3.55;;
23362;SDS011;11853;48.080;11.960;2023-04-03T13:30:28;5.45;;;3.22;;
23362;SDS011;11853;48.080;11.960;2023-04-03T13:32:56;4.05;;;3.20;;
23362;SDS011;11853;48.080;11.960;2023-04-03T13:35:31;4.78;;;4.05;;
23362;SDS011;11853;48.080;11.960;2023-04-03T13:38:44;4.15;;;3.40;;
23362;SDS011;11853;48.080;11.960;2023-04-03T13:41:00;4.97;;;3.88;;
23362;SDS011;11853;48.080;11.960;2023-04-03T13:43:31;6.15;;;5.35;;
23362;SDS011;11853;48.080;11.960;2023-04-03T13:46:00;5.43;;;4.63;;
23362;SDS011;11853;48.080;11.960;2023-04-03T13:48:43;6.60;;;4.20;;
23362;SDS011;11853;48.080;11.960;2023-04-03T13:53:51;2.70;;;2.27;;
23362;SDS011;11853;48.080;11.960;2023-04-03T13:58:57;4.68;;;3.58;;
23362;SDS011;11853;48.080;11.960;2023-04-03T14:01:40;5.47;;;3.70;;
23362;SDS011;11853;48.080;11.960;2023-04-03T14:04:13;2.90;;;2.50;;
23362;SDS011;11853;48.080;11.960;2023-04-03T14:07:00;4.68;;;3.15;;
23362;SDS011;11853;48.080;11.960;2023-04-03T14:09:26;3.63;;;2.65;;
23362;SDS011;11853;48.080;11.960;2023-04-03T14:11:57;2.10;;;1.90;;
23362;SDS011;11853;48.080;11.960;2023-04-03T14:14:30;4.22;;;2.50;;
23362;SDS011;11853;48.080;11.960;2023-04-03T14:16:59;2.28;;;2.00;;
23362;SDS011;11853;48.080;11.960;2023-04-03T14:19:29;2.78;;;2.13;;
23362;SDS011;11853;48.080;11.960;2023-04-03T14:21:59;2.13;;;1.90;;
23362;SDS011;11853;48.080;11.960;2023-04-03T14:24:26;2.40;;;1.67;;
23362;SDS011;11853;48.080;11.960;2023-04-03T14:26:53;4.25;;;2.42;;
23362;SDS011;11853;48.080;11.960;2023-04-03T14:29:20;4.78;;;3.22;;
23362;SDS011;11853;48.080;11.960;2023-04-03T14:31:46;7.85;;;6.43;;
23362;SDS011;11853;48.080;11.960;2023-04-03T14:34:13;3.00;;;2.15;;
23362;SDS011;11853;48.080;11.960;2023-04-03T14:36:41;2.70;;;2.30;;
23362;SDS011;11853;48.080;11.960;2023-04-03T14:39:10;2.83;;;2.40;;
23362;SDS011;11853;48.080;11.960;2023-04-03T14:41:41;5.60;;;3.75;;
23362;SDS011;11853;48.080;11.960;2023-04-03T14:44:06;2.83;;;2.47;;
23362;SDS011;11853;48.080;11.960;2023-04-03T14:46:34;2.80;;;2.25;;
23362;SDS011;11853;48.080;11.960;2023-04-03T14:49:02;2.97;;;2.40;;
23362;SDS011;11853;48.080;11.960;2023-04-03T14:51:32;5.57;;;3.88;;
23362;SDS011;11853;48.080;11.960;2023-04-03T14:53:59;6.88;;;5.18;;
23362;SDS011;11853;48.080;11.960;2023-04-03T14:56:26;3.22;;;2.47;;
23362;SDS011;11853;48.080;11.960;2023-04-03T14:58:57;3.58;;;2.80;;
23362;SDS011;11853;48.080;11.960;2023-04-03T15:01:25;3.60;;;3.30;;
23362;SDS011;11853;48.080;11.960;2023-04-03T15:03:51;3.03;;;2.72;;
23362;SDS011;11853;48.080;11.960;2023-04-03T15:06:17;2.65;;;2.45;;
23362;SDS011;11853;48.080;11.960;2023-04-03T15:08:43;2.10;;;1.80;;
23362;SDS011;11853;48.080;11.960;2023-04-03T15:11:11;1.98;;;1.73;;
23362;SDS011;11853;48.080;11.960;2023-04-03T15:13:37;2.83;;;2.20;;
23362;SDS011;11853;48.080;11.960;2023-04-03T15:16:04;4.03;;;3.05;;
23362;SDS011;11853;48.080;11.960;2023-04-03T15:18:37;7.63;;;4.78;;
23362;SDS011;11853;48.080;11.960;2023-04-03T15:21:03;3.88;;;2.60;;
23362;SDS011;11853;48.080;11.960;2023-04-03T15:23:29;2.85;;;2.55;;
23362;SDS011;11853;48.080;11.960;2023-04-03T15:25:55;2.22;;;2.00;;
23362;SDS011;11853;48.080;11.960;2023-04-03T15:28:28;5.05;;;3.47;;
23362;SDS011;11853;48.080;11.960;2023-04-03T15:30:57;5.53;;;3.10;;
23362;SDS011;11853;48.080;11.960;2023-04-03T15:33:23;2.88;;;2.20;;
23362;SDS011;11853;48.080;11.960;2023-04-03T15:35:49;2.65;;;2.25;;
23362;SDS011;11853;48.080;11.960;2023-04-03T15:38:15;4.30;;;3.45;;
23362;SDS011;11853;48.080;11.960;2023-04-03T15:40:40;4.30;;;3.47;;
23362;SDS011;11853;48.080;11.960;2023-04-03T15:43:07;3.17;;;2.88;;
23362;SDS011;11853;48.080;11.960;2023-04-03T15:45:34;3.47;;;2.28;;
23362;SDS011;11853;48.080;11.960;2023-04-03T15:48:02;2.20;;;2.00;;
23362;SDS011;11853;48.080;11.960;2023-04-03T15:50:28;2.67;;;2.40;;
23362;SDS011;11853;48.080;11.960;2023-04-03T15:52:54;4.93;;;3.50;;
23362;SDS011;11853;48.080;11.960;2023-04-03T15:55:26;3.72;;;2.85;;
23362;SDS011;11853;48.080;11.960;2023-04-03T15:57:54;3.75;;;2.92;;
23362;SDS011;11853;48.080;11.960;2023-04-03T16:00:20;2.95;;;2.60;;
23362;SDS011;11853;48.080;11.960;2023-04-03T16:02:47;4.18;;;2.28;;
23362;SDS011;11853;48.080;11.960;2023-04-03T16:05:20;2.40;;;2.20;;
23362;SDS011;11853;48.080;11.960;2023-04-03T16:07:46;1.88;;;1.77;;
23362;SDS011;11853;48.080;11.960;2023-04-03T16:10:12;2.80;;;1.95;;
23362;SDS011;11853;48.080;11.960;2023-04-03T16:12:39;2.08;;;1.50;;
23362;SDS011;11853;48.080;11.960;2023-04-03T16:15:05;3.15;;;2.00;;
23362;SDS011;11853;48.080;11.960;2023-04-03T16:17:31;2.00;;;1.65;;
23362;SDS011;11853;48.080;11.960;2023-04-03T16:19:59;2.00;;;1.70;;
23362;SDS011;11853;48.080;11.960;2023-04-03T16:22:25;2.15;;;1.70;;
23362;SDS011;11853;48.080;11.960;2023-04-03T16:24:53;3.28;;;2.03;;
23362;SDS011;11853;48.080;11.960;2023-04-03T16:27:18;2.13;;;1.90;;
23362;SDS011;11853;48.080;11.960;2023-04-03T16:29:44;1.55;;;1.42;;
23362;SDS011;11853;48.080;11.960;2023-04-03T16:32:10;4.10;;;2.22;;
23362;SDS011;11853;48.080;11.960;2023-04-03T16:34:37;2.88;;;1.95;;